sensor_id;sensor_type;location;lat;lon;timestamp;P1;durP1;ratioP1;P2;durP2;ratioP2
20375;SDS011;10347;51.828;6.466;2022-11-03T00:01:09;4.10;;;1.98;;
20375;SDS011;10347;51.828;6.466;2022-11-03T00:03:35;6.60;;;2.22;;
20375;SDS011;10347;51.828;6.466;2022-11-03T00:06:01;9.55;;;2.70;;
20375;SDS011;10347;51.828;6.466;2022-11-03T00:08:34;9.75;;;3.00;;
20375;SDS011;10347;51.828;6.466;2022-11-03T00:11:03;4.55;;;1.92;;
20375;SDS011;10347;51.828;6.466;2022-11-03T00:13:37;6.88;;;2.05;;
20375;SDS011;10347;51.828;6.466;2022-11-03T00:16:04;9.73;;;2.70;;
20375;SDS011;10347;51.828;6.466;2022-11-03T00:18:30;9.07;;;2.53;;
20375;SDS011;10347;51.828;6.466;2022-11-03T00:21:00;8.77;;;2.20;;
20375;SDS011;10347;51.828;6.466;2022-11-03T00:23:30;10.95;;;2.45;;
20375;SDS011;10347;51.828;6.466;2022-11-03T00:26:08;7.47;;;1.98;;
20375;SDS011;10347;51.828;6.466;2022-11-03T00:28:42;9.52;;;2.53;;
20375;SDS011;10347;51.828;6.466;2022-11-03T00:31:12;6.88;;;2.78;;
20375;SDS011;10347;51.828;6.466;2022-11-03T00:33:46;7.63;;;2.35;;
20375;SDS011;10347;51.828;6.466;2022-11-03T00:36:13;4.32;;;1.83;;
20375;SDS011;10347;51.828;6.466;2022-11-03T00:38:43;4.65;;;2.30;;
20375;SDS011;10347;51.828;6.466;2022-11-03T00:41:10;5.78;;;2.20;;
20375;SDS011;10347;51.828;6.466;2022-11-03T00:43:36;5.22;;;2.28;;
20375;SDS011;10347;51.828;6.466;2022-11-03T00:46:03;6.70;;;2.30;;
20375;SDS011;10347;51.828;6.466;2022-11-03T00:48:30;9.57;;;2.22;;
20375;SDS011;10347;51.828;6.466;2022-11-03T00:54:02;7.35;;;2.38;;
20375;SDS011;10347;51.828;6.466;2022-11-03T00:56:38;5.20;;;2.38;;
20375;SDS011;10347;51.828;6.466;2022-11-03T00:59:06;8.80;;;2.45;;
20375;SDS011;10347;51.828;6.466;2022-11-03T01:01:37;8.18;;;2.00;;
20375;SDS011;10347;51.828;6.466;2022-11-03T01:04:04;4.32;;;2.15;;
20375;SDS011;10347;51.828;6.466;2022-11-03T01:06:50;10.48;;;2.45;;
20375;SDS011;10347;51.828;6.466;2022-11-03T01:14:21;7.03;;;2.17;;
20375;SDS011;10347;51.828;6.466;2022-11-03T01:16:47;6.43;;;2.30;;
20375;SDS011;10347;51.828;6.466;2022-11-03T01:19:13;4.55;;;1.95;;
20375;SDS011;10347;51.828;6.466;2022-11-03T01:21:38;7.55;;;2.40;;
20375;SDS011;10347;51.828;6.466;2022-11-03T01:24:04;5.47;;;1.90;;
20375;SDS011;10347;51.828;6.466;2022-11-03T01:29:51;8.00;;;2.58;;
20375;SDS011;10347;51.828;6.466;2022-11-03T01:32:17;9.38;;;2.50;;
20375;SDS011;10347;51.828;6.466;2022-11-03T01:34:43;9.73;;;2.90;;
20375;SDS011;10347;51.828;6.466;2022-11-03T01:37:08;11.95;;;2.63;;
20375;SDS011;10347;51.828;6.466;2022-11-03T01:39:34;8.55;;;2.60;;
20375;SDS011;10347;51.828;6.466;2022-11-03T01:41:59;8.82;;;2.22;;
20375;SDS011;10347;51.828;6.466;2022-11-03T01:44:29;6.85;;;2.47;;
20375;SDS011;10347;51.828;6.466;2022-11-03T01:47:05;4.60;;;1.90;;
20375;SDS011;10347;51.828;6.466;2022-11-03T01:49:46;7.55;;;2.58;;
20375;SDS011;10347;51.828;6.466;2022-11-03T01:54:59;6.60;;;2.45;;
20375;SDS011;10347;51.828;6.466;2022-11-03T01:57:31;6.68;;;2.20;;
20375;SDS011;10347;51.828;6.466;2022-11-03T02:00:00;5.15;;;2.25;;
20375;SDS011;10347;51.828;6.466;2022-11-03T02:02:26;7.40;;;2.25;;
20375;SDS011;10347;51.828;6.466;2022-11-03T02:04:52;12.63;;;2.45;;
20375;SDS011;10347;51.828;6.466;2022-11-03T02:07:28;9.75;;;2.60;;
20375;SDS011;10347;51.828;6.466;2022-11-03T02:10:02;5.50;;;2.15;;
20375;SDS011;10347;51.828;6.466;2022-11-03T02:12:29;4.80;;;2.20;;
20375;SDS011;10347;51.828;6.466;2022-11-03T02:15:05;8.63;;;2.22;;
20375;SDS011;10347;51.828;6.466;2022-11-03T02:17:34;6.30;;;1.92;;
20375;SDS011;10347;51.828;6.466;2022-11-03T02:20:04;5.60;;;2.40;;
20375;SDS011;10347;51.828;6.466;2022-11-03T02:22:42;6.40;;;2.40;;
20375;SDS011;10347;51.828;6.466;2022-11-03T02:25:45;4.40;;;2.40;;
20375;SDS011;10347;51.828;6.466;2022-11-03T02:28:14;6.72;;;2.20;;
20375;SDS011;10347;51.828;6.466;2022-11-03T02:30:44;8.15;;;2.22;;
20375;SDS011;10347;51.828;6.466;2022-11-03T02:35:44;7.03;;;2.58;;
20375;SDS011;10347;51.828;6.466;2022-11-03T02:38:15;5.53;;;1.95;;
20375;SDS011;10347;51.828;6.466;2022-11-03T02:40:51;10.13;;;2.38;;
20375;SDS011;10347;51.828;6.466;2022-11-03T02:43:19;10.32;;;2.30;;
20375;SDS011;10347;51.828;6.466;2022-11-03T02:45:47;6.30;;;1.90;;
20375;SDS011;10347;51.828;6.466;2022-11-03T02:48:15;5.93;;;2.40;;
20375;SDS011;10347;51.828;6.466;2022-11-03T02:50:42;7.95;;;2.00;;
20375;SDS011;10347;51.828;6.466;2022-11-03T02:53:10;5.93;;;2.13;;
20375;SDS011;10347;51.828;6.466;2022-11-03T02:55:38;6.18;;;2.25;;
20375;SDS011;10347;51.828;6.466;2022-11-03T03:03:28;6.22;;;2.40;;
20375;SDS011;10347;51.828;6.466;2022-11-03T03:05:59;8.38;;;2.22;;
20375;SDS011;10347;51.828;6.466;2022-11-03T03:08:28;9.13;;;2.50;;
20375;SDS011;10347;51.828;6.466;2022-11-03T03:10:54;6.35;;;2.25;;
20375;SDS011;10347;51.828;6.466;2022-11-03T03:13:23;6.03;;;2.00;;
20375;SDS011;10347;51.828;6.466;2022-11-03T03:18:44;8.32;;;2.50;;
20375;SDS011;10347;51.828;6.466;2022-11-03T03:21:22;7.55;;;2.42;;
20375;SDS011;10347;51.828;6.466;2022-11-03T03:23:57;4.78;;;2.10;;
20375;SDS011;10347;51.828;6.466;2022-11-03T03:26:33;6.53;;;2.35;;
20375;SDS011;10347;51.828;6.466;2022-11-03T03:29:06;6.93;;;1.98;;
20375;SDS011;10347;51.828;6.466;2022-11-03T03:31:39;7.15;;;2.35;;
20375;SDS011;10347;51.828;6.466;2022-11-03T03:34:09;6.40;;;2.20;;
20375;SDS011;10347;51.828;6.466;2022-11-03T03:36:37;5.70;;;2.00;;
20375;SDS011;10347;51.828;6.466;2022-11-03T03:39:04;5.35;;;2.13;;
20375;SDS011;10347;51.828;6.466;2022-11-03T03:41:31;5.40;;;2.17;;
20375;SDS011;10347;51.828;6.466;2022-11-03T03:43:59;8.02;;;2.25;;
20375;SDS011;10347;51.828;6.466;2022-11-03T03:46:30;6.65;;;2.13;;
20375;SDS011;10347;51.828;6.466;2022-11-03T03:49:03;6.35;;;2.20;;
20375;SDS011;10347;51.828;6.466;2022-11-03T03:51:29;8.27;;;2.33;;
20375;SDS011;10347;51.828;6.466;2022-11-03T03:53:56;6.20;;;2.70;;
20375;SDS011;10347;51.828;6.466;2022-11-03T03:56:26;8.98;;;2.58;;
20375;SDS011;10347;51.828;6.466;2022-11-03T03:59:06;5.80;;;2.22;;
20375;SDS011;10347;51.828;6.466;2022-11-03T04:01:32;7.40;;;2.25;;
20375;SDS011;10347;51.828;6.466;2022-11-03T04:03:58;5.63;;;2.38;;
20375;SDS011;10347;51.828;6.466;2022-11-03T04:06:24;11.40;;;2.67;;
20375;SDS011;10347;51.828;6.466;2022-11-03T04:08:49;7.78;;;3.15;;
20375;SDS011;10347;51.828;6.466;2022-11-03T04:11:15;9.00;;;2.65;;
20375;SDS011;10347;51.828;6.466;2022-11-03T04:13:59;10.93;;;3.40;;
20375;SDS011;10347;51.828;6.466;2022-11-03T04:16:43;6.45;;;2.50;;
20375;SDS011;10347;51.828;6.466;2022-11-03T04:19:27;7.00;;;2.70;;
20375;SDS011;10347;51.828;6.466;2022-11-03T04:22:11;7.88;;;3.00;;
20375;SDS011;10347;51.828;6.466;2022-11-03T04:24:40;9.27;;;2.60;;
20375;SDS011;10347;51.828;6.466;2022-11-03T04:27:48;7.00;;;2.55;;
20375;SDS011;10347;51.828;6.466;2022-11-03T04:30:00;6.60;;;2.38;;
20375;SDS011;10347;51.828;6.466;2022-11-03T04:32:40;6.13;;;2.53;;
20375;SDS011;10347;51.828;6.466;2022-11-03T04:35:25;5.32;;;2.67;;
20375;SDS011;10347;51.828;6.466;2022-11-03T04:38:02;9.07;;;2.92;;
20375;SDS011;10347;51.828;6.466;2022-11-03T04:40:46;7.88;;;2.97;;
20375;SDS011;10347;51.828;6.466;2022-11-03T04:43:19;8.40;;;2.80;;
20375;SDS011;10347;51.828;6.466;2022-11-03T04:45:47;6.68;;;2.78;;
20375;SDS011;10347;51.828;6.466;2022-11-03T04:48:20;8.30;;;2.42;;
20375;SDS011;10347;51.828;6.466;2022-11-03T04:50:47;5.93;;;2.53;;
20375;SDS011;10347;51.828;6.466;2022-11-03T04:53:17;7.00;;;2.72;;
20375;SDS011;10347;51.828;6.466;2022-11-03T04:55:44;7.57;;;2.58;;
20375;SDS011;10347;51.828;6.466;2022-11-03T04:58:21;7.72;;;2.75;;
20375;SDS011;10347;51.828;6.466;2022-11-03T05:00:50;10.73;;;2.60;;
20375;SDS011;10347;51.828;6.466;2022-11-03T05:03:20;6.35;;;2.22;;
20375;SDS011;10347;51.828;6.466;2022-11-03T05:05:51;10.43;;;2.70;;
20375;SDS011;10347;51.828;6.466;2022-11-03T05:08:17;6.32;;;2.30;;
20375;SDS011;10347;51.828;6.466;2022-11-03T05:10:44;9.23;;;3.13;;
20375;SDS011;10347;51.828;6.466;2022-11-03T05:13:15;7.55;;;2.67;;
20375;SDS011;10347;51.828;6.466;2022-11-03T05:15:48;5.53;;;2.92;;
20375;SDS011;10347;51.828;6.466;2022-11-03T05:18:24;11.25;;;2.50;;
20375;SDS011;10347;51.828;6.466;2022-11-03T05:20:57;3.90;;;2.08;;
20375;SDS011;10347;51.828;6.466;2022-11-03T05:23:22;8.40;;;2.90;;
20375;SDS011;10347;51.828;6.466;2022-11-03T05:25:52;6.45;;;2.65;;
20375;SDS011;10347;51.828;6.466;2022-11-03T05:28:27;8.73;;;2.42;;
20375;SDS011;10347;51.828;6.466;2022-11-03T05:30:55;8.48;;;2.55;;
20375;SDS011;10347;51.828;6.466;2022-11-03T05:35:47;7.13;;;2.47;;
20375;SDS011;10347;51.828;6.466;2022-11-03T05:38:14;5.93;;;2.42;;
20375;SDS011;10347;51.828;6.466;2022-11-03T05:40:42;4.95;;;2.50;;
20375;SDS011;10347;51.828;6.466;2022-11-03T05:43:07;5.15;;;2.30;;
20375;SDS011;10347;51.828;6.466;2022-11-03T05:45:36;8.93;;;2.78;;
20375;SDS011;10347;51.828;6.466;2022-11-03T05:48:02;7.85;;;2.60;;
20375;SDS011;10347;51.828;6.466;2022-11-03T05:50:37;8.55;;;2.30;;
20375;SDS011;10347;51.828;6.466;2022-11-03T05:53:18;5.80;;;2.05;;
20375;SDS011;10347;51.828;6.466;2022-11-03T05:55:51;8.90;;;2.58;;
20375;SDS011;10347;51.828;6.466;2022-11-03T06:00:43;8.02;;;2.47;;
20375;SDS011;10347;51.828;6.466;2022-11-03T06:03:33;7.53;;;2.38;;
20375;SDS011;10347;51.828;6.466;2022-11-03T06:05:59;8.32;;;2.45;;
20375;SDS011;10347;51.828;6.466;2022-11-03T06:08:35;6.25;;;2.50;;
20375;SDS011;10347;51.828;6.466;2022-11-03T06:11:01;6.28;;;2.40;;
20375;SDS011;10347;51.828;6.466;2022-11-03T06:13:31;7.05;;;2.50;;
20375;SDS011;10347;51.828;6.466;2022-11-03T06:16:03;4.28;;;2.25;;
20375;SDS011;10347;51.828;6.466;2022-11-03T06:18:35;7.38;;;2.70;;
20375;SDS011;10347;51.828;6.466;2022-11-03T06:21:12;7.85;;;2.70;;
20375;SDS011;10347;51.828;6.466;2022-11-03T06:23:40;7.63;;;2.85;;
20375;SDS011;10347;51.828;6.466;2022-11-03T06:26:25;7.18;;;2.90;;
20375;SDS011;10347;51.828;6.466;2022-11-03T06:28:52;7.35;;;2.33;;
20375;SDS011;10347;51.828;6.466;2022-11-03T06:31:27;8.38;;;3.05;;
20375;SDS011;10347;51.828;6.466;2022-11-03T06:33:54;9.45;;;2.67;;
20375;SDS011;10347;51.828;6.466;2022-11-03T06:36:25;7.93;;;2.67;;
20375;SDS011;10347;51.828;6.466;2022-11-03T06:39:08;8.77;;;2.50;;
20375;SDS011;10347;51.828;6.466;2022-11-03T06:41:44;9.10;;;2.47;;
20375;SDS011;10347;51.828;6.466;2022-11-03T06:44:21;9.88;;;2.65;;
20375;SDS011;10347;51.828;6.466;2022-11-03T06:46:52;7.15;;;3.08;;
20375;SDS011;10347;51.828;6.466;2022-11-03T06:49:30;8.25;;;3.22;;
20375;SDS011;10347;51.828;6.466;2022-11-03T06:51:57;7.05;;;2.58;;
20375;SDS011;10347;51.828;6.466;2022-11-03T06:54:26;8.50;;;2.97;;
20375;SDS011;10347;51.828;6.466;2022-11-03T06:56:52;6.60;;;2.60;;
20375;SDS011;10347;51.828;6.466;2022-11-03T06:59:17;6.47;;;2.78;;
20375;SDS011;10347;51.828;6.466;2022-11-03T07:01:44;10.73;;;3.42;;
20375;SDS011;10347;51.828;6.466;2022-11-03T07:04:21;8.57;;;2.75;;
20375;SDS011;10347;51.828;6.466;2022-11-03T07:06:52;7.78;;;2.90;;
20375;SDS011;10347;51.828;6.466;2022-11-03T07:09:21;7.72;;;2.35;;
20375;SDS011;10347;51.828;6.466;2022-11-03T07:11:51;9.07;;;2.92;;
20375;SDS011;10347;51.828;6.466;2022-11-03T07:14:20;6.35;;;2.90;;
20375;SDS011;10347;51.828;6.466;2022-11-03T07:16:52;6.38;;;2.97;;
20375;SDS011;10347;51.828;6.466;2022-11-03T07:19:25;9.20;;;2.85;;
20375;SDS011;10347;51.828;6.466;2022-11-03T07:21:55;8.50;;;2.72;;
20375;SDS011;10347;51.828;6.466;2022-11-03T07:24:28;8.18;;;3.17;;
20375;SDS011;10347;51.828;6.466;2022-11-03T07:29:34;7.45;;;2.70;;
20375;SDS011;10347;51.828;6.466;2022-11-03T07:32:00;7.25;;;2.72;;
20375;SDS011;10347;51.828;6.466;2022-11-03T07:34:26;6.80;;;2.70;;
20375;SDS011;10347;51.828;6.466;2022-11-03T07:36:56;10.85;;;3.85;;
20375;SDS011;10347;51.828;6.466;2022-11-03T07:39:23;8.68;;;2.63;;
20375;SDS011;10347;51.828;6.466;2022-11-03T07:41:52;6.03;;;2.75;;
20375;SDS011;10347;51.828;6.466;2022-11-03T07:44:18;10.00;;;3.30;;
20375;SDS011;10347;51.828;6.466;2022-11-03T07:46:44;8.52;;;2.65;;
20375;SDS011;10347;51.828;6.466;2022-11-03T07:49:27;7.97;;;2.47;;
20375;SDS011;10347;51.828;6.466;2022-11-03T07:51:54;8.48;;;3.03;;
20375;SDS011;10347;51.828;6.466;2022-11-03T07:54:21;6.75;;;2.92;;
20375;SDS011;10347;51.828;6.466;2022-11-03T07:56:52;7.55;;;2.88;;
20375;SDS011;10347;51.828;6.466;2022-11-03T07:59:19;5.95;;;3.05;;
20375;SDS011;10347;51.828;6.466;2022-11-03T08:01:48;9.77;;;3.20;;
20375;SDS011;10347;51.828;6.466;2022-11-03T08:04:16;7.13;;;2.83;;
20375;SDS011;10347;51.828;6.466;2022-11-03T08:06:47;8.85;;;2.85;;
20375;SDS011;10347;51.828;6.466;2022-11-03T08:09:13;10.43;;;3.00;;
20375;SDS011;10347;51.828;6.466;2022-11-03T08:11:39;10.38;;;3.83;;
20375;SDS011;10347;51.828;6.466;2022-11-03T08:14:05;11.77;;;3.85;;
20375;SDS011;10347;51.828;6.466;2022-11-03T08:16:30;8.40;;;2.92;;
20375;SDS011;10347;51.828;6.466;2022-11-03T08:18:56;6.63;;;3.25;;
20375;SDS011;10347;51.828;6.466;2022-11-03T08:21:21;6.50;;;2.97;;
20375;SDS011;10347;51.828;6.466;2022-11-03T08:23:47;7.80;;;3.05;;
20375;SDS011;10347;51.828;6.466;2022-11-03T08:26:13;5.90;;;3.00;;
20375;SDS011;10347;51.828;6.466;2022-11-03T08:28:39;6.82;;;2.92;;
20375;SDS011;10347;51.828;6.466;2022-11-03T08:31:04;7.30;;;2.83;;
20375;SDS011;10347;51.828;6.466;2022-11-03T08:33:31;8.43;;;2.58;;
20375;SDS011;10347;51.828;6.466;2022-11-03T08:35:57;6.15;;;2.60;;
20375;SDS011;10347;51.828;6.466;2022-11-03T08:38:23;5.85;;;3.10;;
20375;SDS011;10347;51.828;6.466;2022-11-03T08:40:48;6.55;;;2.95;;
20375;SDS011;10347;51.828;6.466;2022-11-03T08:43:14;7.65;;;2.78;;
20375;SDS011;10347;51.828;6.466;2022-11-03T08:45:39;6.57;;;3.08;;
20375;SDS011;10347;51.828;6.466;2022-11-03T08:48:05;7.45;;;3.22;;
20375;SDS011;10347;51.828;6.466;2022-11-03T08:50:31;5.45;;;2.67;;
20375;SDS011;10347;51.828;6.466;2022-11-03T08:52:56;6.70;;;2.92;;
20375;SDS011;10347;51.828;6.466;2022-11-03T08:55:22;8.77;;;2.60;;
20375;SDS011;10347;51.828;6.466;2022-11-03T08:57:47;5.38;;;2.63;;
20375;SDS011;10347;51.828;6.466;2022-11-03T09:00:13;7.97;;;3.13;;
20375;SDS011;10347;51.828;6.466;2022-11-03T09:02:41;6.95;;;2.60;;
20375;SDS011;10347;51.828;6.466;2022-11-03T09:05:07;10.10;;;2.80;;
20375;SDS011;10347;51.828;6.466;2022-11-03T09:07:33;4.82;;;2.40;;
20375;SDS011;10347;51.828;6.466;2022-11-03T09:09:59;7.47;;;2.60;;
20375;SDS011;10347;51.828;6.466;2022-11-03T09:12:24;6.68;;;2.70;;
20375;SDS011;10347;51.828;6.466;2022-11-03T09:14:50;9.07;;;2.83;;
20375;SDS011;10347;51.828;6.466;2022-11-03T09:17:15;6.95;;;2.75;;
20375;SDS011;10347;51.828;6.466;2022-11-03T09:19:41;6.05;;;2.60;;
20375;SDS011;10347;51.828;6.466;2022-11-03T09:22:07;5.63;;;2.40;;
20375;SDS011;10347;51.828;6.466;2022-11-03T09:24:33;8.48;;;2.92;;
20375;SDS011;10347;51.828;6.466;2022-11-03T09:26:58;4.05;;;2.60;;
20375;SDS011;10347;51.828;6.466;2022-11-03T09:29:24;6.97;;;2.90;;
20375;SDS011;10347;51.828;6.466;2022-11-03T09:31:49;10.35;;;2.78;;
20375;SDS011;10347;51.828;6.466;2022-11-03T09:34:15;10.18;;;2.60;;
20375;SDS011;10347;51.828;6.466;2022-11-03T09:36:40;6.68;;;2.28;;
20375;SDS011;10347;51.828;6.466;2022-11-03T09:39:06;9.18;;;2.92;;
20375;SDS011;10347;51.828;6.466;2022-11-03T09:41:32;6.88;;;2.38;;
20375;SDS011;10347;51.828;6.466;2022-11-03T09:43:58;8.30;;;2.42;;
20375;SDS011;10347;51.828;6.466;2022-11-03T09:46:25;4.03;;;2.05;;
20375;SDS011;10347;51.828;6.466;2022-11-03T09:48:53;7.57;;;2.88;;
20375;SDS011;10347;51.828;6.466;2022-11-03T09:51:20;6.85;;;2.90;;
20375;SDS011;10347;51.828;6.466;2022-11-03T09:53:47;7.38;;;2.95;;
20375;SDS011;10347;51.828;6.466;2022-11-03T09:56:13;8.05;;;2.70;;
20375;SDS011;10347;51.828;6.466;2022-11-03T09:58:42;11.68;;;2.83;;
20375;SDS011;10347;51.828;6.466;2022-11-03T10:01:08;5.38;;;2.40;;
20375;SDS011;10347;51.828;6.466;2022-11-03T10:03:35;13.02;;;3.60;;
20375;SDS011;10347;51.828;6.466;2022-11-03T10:06:03;5.97;;;2.60;;
20375;SDS011;10347;51.828;6.466;2022-11-03T10:08:29;7.78;;;2.78;;
20375;SDS011;10347;51.828;6.466;2022-11-03T10:10:56;4.72;;;2.22;;
20375;SDS011;10347;51.828;6.466;2022-11-03T10:13:29;7.50;;;3.00;;
20375;SDS011;10347;51.828;6.466;2022-11-03T10:16:05;6.80;;;2.83;;
20375;SDS011;10347;51.828;6.466;2022-11-03T10:18:33;8.13;;;2.70;;
20375;SDS011;10347;51.828;6.466;2022-11-03T10:21:02;13.02;;;2.60;;
20375;SDS011;10347;51.828;6.466;2022-11-03T10:23:35;7.32;;;2.72;;
20375;SDS011;10347;51.828;6.466;2022-11-03T10:26:08;7.03;;;2.58;;
20375;SDS011;10347;51.828;6.466;2022-11-03T10:28:36;5.30;;;2.67;;
20375;SDS011;10347;51.828;6.466;2022-11-03T10:31:06;6.60;;;2.60;;
20375;SDS011;10347;51.828;6.466;2022-11-03T10:38:44;8.82;;;2.78;;
20375;SDS011;10347;51.828;6.466;2022-11-03T10:41:21;2.72;;;2.25;;
20375;SDS011;10347;51.828;6.466;2022-11-03T10:44:02;6.18;;;2.53;;
20375;SDS011;10347;51.828;6.466;2022-11-03T10:46:28;8.07;;;2.75;;
20375;SDS011;10347;51.828;6.466;2022-11-03T10:49:04;6.65;;;2.78;;
20375;SDS011;10347;51.828;6.466;2022-11-03T10:51:39;7.93;;;2.33;;
20375;SDS011;10347;51.828;6.466;2022-11-03T10:54:13;5.95;;;2.53;;
20375;SDS011;10347;51.828;6.466;2022-11-03T10:56:41;7.82;;;2.85;;
20375;SDS011;10347;51.828;6.466;2022-11-03T10:59:07;5.70;;;2.53;;
20375;SDS011;10347;51.828;6.466;2022-11-03T11:01:42;7.95;;;2.65;;
20375;SDS011;10347;51.828;6.466;2022-11-03T11:04:09;5.65;;;2.25;;
20375;SDS011;10347;51.828;6.466;2022-11-03T11:06:42;6.57;;;2.42;;
20375;SDS011;10347;51.828;6.466;2022-11-03T11:09:08;4.88;;;2.35;;
20375;SDS011;10347;51.828;6.466;2022-11-03T11:11:37;8.45;;;2.75;;
20375;SDS011;10347;51.828;6.466;2022-11-03T11:19:16;6.47;;;2.33;;
20375;SDS011;10347;51.828;6.466;2022-11-03T11:24:10;16.05;;;2.75;;
20375;SDS011;10347;51.828;6.466;2022-11-03T11:26:36;6.10;;;2.55;;
20375;SDS011;10347;51.828;6.466;2022-11-03T11:39:12;7.35;;;2.65;;
20375;SDS011;10347;51.828;6.466;2022-11-03T11:52:40;6.05;;;2.17;;
20375;SDS011;10347;51.828;6.466;2022-11-03T11:55:19;9.13;;;2.70;;
20375;SDS011;10347;51.828;6.466;2022-11-03T11:57:46;6.15;;;2.40;;
20375;SDS011;10347;51.828;6.466;2022-11-03T12:02:54;4.35;;;2.15;;
20375;SDS011;10347;51.828;6.466;2022-11-03T12:05:24;5.10;;;2.35;;
20375;SDS011;10347;51.828;6.466;2022-11-03T12:07:52;6.13;;;2.42;;
20375;SDS011;10347;51.828;6.466;2022-11-03T12:10:19;6.43;;;2.30;;
20375;SDS011;10347;51.828;6.466;2022-11-03T12:12:47;5.10;;;1.98;;
20375;SDS011;10347;51.828;6.466;2022-11-03T12:21:01;8.27;;;2.47;;
20375;SDS011;10347;51.828;6.466;2022-11-03T12:26:04;4.25;;;1.80;;
20375;SDS011;10347;51.828;6.466;2022-11-03T12:28:33;5.70;;;2.03;;
20375;SDS011;10347;51.828;6.466;2022-11-03T12:31:00;3.80;;;1.80;;
20375;SDS011;10347;51.828;6.466;2022-11-03T12:33:26;4.28;;;1.70;;
20375;SDS011;10347;51.828;6.466;2022-11-03T12:35:52;5.75;;;1.73;;
20375;SDS011;10347;51.828;6.466;2022-11-03T12:38:18;5.00;;;2.00;;
20375;SDS011;10347;51.828;6.466;2022-11-03T12:40:43;5.13;;;1.60;;
20375;SDS011;10347;51.828;6.466;2022-11-03T12:43:09;7.68;;;2.20;;
20375;SDS011;10347;51.828;6.466;2022-11-03T12:45:34;4.78;;;1.90;;
20375;SDS011;10347;51.828;6.466;2022-11-03T12:48:00;2.50;;;1.30;;
20375;SDS011;10347;51.828;6.466;2022-11-03T12:50:25;2.95;;;1.83;;
20375;SDS011;10347;51.828;6.466;2022-11-03T12:52:51;3.78;;;1.50;;
20375;SDS011;10347;51.828;6.466;2022-11-03T12:55:16;3.47;;;1.50;;
20375;SDS011;10347;51.828;6.466;2022-11-03T12:57:42;5.38;;;1.58;;
20375;SDS011;10347;51.828;6.466;2022-11-03T13:00:09;5.55;;;1.88;;
20375;SDS011;10347;51.828;6.466;2022-11-03T13:02:36;4.30;;;2.05;;
20375;SDS011;10347;51.828;6.466;2022-11-03T13:05:02;4.80;;;1.60;;
20375;SDS011;10347;51.828;6.466;2022-11-03T13:07:28;3.67;;;1.75;;
20375;SDS011;10347;51.828;6.466;2022-11-03T13:09:54;4.57;;;1.52;;
20375;SDS011;10347;51.828;6.466;2022-11-03T13:12:19;5.82;;;1.90;;
20375;SDS011;10347;51.828;6.466;2022-11-03T13:15:00;9.35;;;1.70;;
20375;SDS011;10347;51.828;6.466;2022-11-03T13:17:30;6.93;;;2.17;;
20375;SDS011;10347;51.828;6.466;2022-11-03T13:19:55;5.00;;;1.75;;
20375;SDS011;10347;51.828;6.466;2022-11-03T13:22:21;3.65;;;1.73;;
20375;SDS011;10347;51.828;6.466;2022-11-03T13:24:46;3.20;;;1.48;;
20375;SDS011;10347;51.828;6.466;2022-11-03T13:27:12;3.53;;;1.73;;
20375;SDS011;10347;51.828;6.466;2022-11-03T13:29:37;5.95;;;2.03;;
20375;SDS011;10347;51.828;6.466;2022-11-03T13:32:06;4.45;;;1.58;;
20375;SDS011;10347;51.828;6.466;2022-11-03T13:34:32;3.40;;;1.63;;
20375;SDS011;10347;51.828;6.466;2022-11-03T13:36:57;2.83;;;1.38;;
20375;SDS011;10347;51.828;6.466;2022-11-03T13:39:23;4.85;;;1.75;;
20375;SDS011;10347;51.828;6.466;2022-11-03T13:41:49;5.80;;;1.73;;
20375;SDS011;10347;51.828;6.466;2022-11-03T13:44:15;7.05;;;1.83;;
20375;SDS011;10347;51.828;6.466;2022-11-03T13:46:40;9.32;;;2.10;;
20375;SDS011;10347;51.828;6.466;2022-11-03T13:49:06;3.28;;;1.48;;
20375;SDS011;10347;51.828;6.466;2022-11-03T13:51:31;2.53;;;1.60;;
20375;SDS011;10347;51.828;6.466;2022-11-03T13:53:57;4.65;;;1.77;;
20375;SDS011;10347;51.828;6.466;2022-11-03T13:56:22;5.78;;;2.05;;
20375;SDS011;10347;51.828;6.466;2022-11-03T13:58:48;6.10;;;2.35;;
20375;SDS011;10347;51.828;6.466;2022-11-03T14:01:14;3.28;;;1.70;;
20375;SDS011;10347;51.828;6.466;2022-11-03T14:03:40;3.95;;;1.88;;
20375;SDS011;10347;51.828;6.466;2022-11-03T14:06:06;5.38;;;1.80;;
20375;SDS011;10347;51.828;6.466;2022-11-03T14:08:32;4.25;;;2.15;;
20375;SDS011;10347;51.828;6.466;2022-11-03T14:10:57;6.75;;;2.25;;
20375;SDS011;10347;51.828;6.466;2022-11-03T14:13:23;4.55;;;1.58;;
20375;SDS011;10347;51.828;6.466;2022-11-03T14:15:48;2.60;;;1.52;;
20375;SDS011;10347;51.828;6.466;2022-11-03T14:18:14;7.70;;;1.85;;
20375;SDS011;10347;51.828;6.466;2022-11-03T14:20:39;4.22;;;2.10;;
20375;SDS011;10347;51.828;6.466;2022-11-03T14:23:05;4.82;;;1.70;;
20375;SDS011;10347;51.828;6.466;2022-11-03T14:25:30;2.17;;;1.42;;
20375;SDS011;10347;51.828;6.466;2022-11-03T14:27:56;6.28;;;1.85;;
20375;SDS011;10347;51.828;6.466;2022-11-03T14:30:21;1.77;;;1.35;;
20375;SDS011;10347;51.828;6.466;2022-11-03T14:32:47;4.53;;;1.65;;
20375;SDS011;10347;51.828;6.466;2022-11-03T14:35:12;4.90;;;1.65;;
20375;SDS011;10347;51.828;6.466;2022-11-03T14:37:38;5.82;;;1.90;;
20375;SDS011;10347;51.828;6.466;2022-11-03T14:40:04;4.05;;;1.65;;
20375;SDS011;10347;51.828;6.466;2022-11-03T14:42:30;2.65;;;1.38;;
20375;SDS011;10347;51.828;6.466;2022-11-03T14:44:56;2.95;;;1.90;;
20375;SDS011;10347;51.828;6.466;2022-11-03T14:47:22;3.80;;;1.80;;
20375;SDS011;10347;51.828;6.466;2022-11-03T14:49:49;4.68;;;1.80;;
20375;SDS011;10347;51.828;6.466;2022-11-03T14:52:15;5.68;;;1.90;;
20375;SDS011;10347;51.828;6.466;2022-11-03T14:54:41;7.20;;;1.90;;
20375;SDS011;10347;51.828;6.466;2022-11-03T14:57:07;7.20;;;2.33;;
20375;SDS011;10347;51.828;6.466;2022-11-03T14:59:33;4.03;;;1.42;;
20375;SDS011;10347;51.828;6.466;2022-11-03T15:01:59;2.88;;;2.00;;
20375;SDS011;10347;51.828;6.466;2022-11-03T15:04:25;5.88;;;2.22;;
20375;SDS011;10347;51.828;6.466;2022-11-03T15:06:51;4.22;;;2.03;;
20375;SDS011;10347;51.828;6.466;2022-11-03T15:09:17;5.95;;;2.00;;
20375;SDS011;10347;51.828;6.466;2022-11-03T15:11:44;5.55;;;2.03;;
20375;SDS011;10347;51.828;6.466;2022-11-03T15:14:10;3.53;;;1.75;;
20375;SDS011;10347;51.828;6.466;2022-11-03T15:16:36;8.55;;;2.50;;
20375;SDS011;10347;51.828;6.466;2022-11-03T15:19:02;8.25;;;2.45;;
20375;SDS011;10347;51.828;6.466;2022-11-03T15:21:29;5.28;;;2.40;;
20375;SDS011;10347;51.828;6.466;2022-11-03T15:23:56;2.88;;;1.98;;
20375;SDS011;10347;51.828;6.466;2022-11-03T15:26:22;3.50;;;1.98;;
20375;SDS011;10347;51.828;6.466;2022-11-03T15:28:47;4.40;;;1.90;;
20375;SDS011;10347;51.828;6.466;2022-11-03T15:31:13;2.67;;;1.88;;
20375;SDS011;10347;51.828;6.466;2022-11-03T15:33:38;3.53;;;1.98;;
20375;SDS011;10347;51.828;6.466;2022-11-03T15:36:04;2.63;;;1.80;;
20375;SDS011;10347;51.828;6.466;2022-11-03T15:38:31;8.63;;;2.70;;
20375;SDS011;10347;51.828;6.466;2022-11-03T15:40:57;4.80;;;2.10;;
20375;SDS011;10347;51.828;6.466;2022-11-03T15:43:43;6.45;;;2.40;;
20375;SDS011;10347;51.828;6.466;2022-11-03T15:46:13;5.18;;;2.58;;
20375;SDS011;10347;51.828;6.466;2022-11-03T15:48:40;6.90;;;2.28;;
20375;SDS011;10347;51.828;6.466;2022-11-03T15:51:06;3.40;;;2.05;;
20375;SDS011;10347;51.828;6.466;2022-11-03T15:53:32;3.85;;;2.35;;
20375;SDS011;10347;51.828;6.466;2022-11-03T15:55:58;4.57;;;2.50;;
20375;SDS011;10347;51.828;6.466;2022-11-03T15:58:23;5.88;;;2.38;;
20375;SDS011;10347;51.828;6.466;2022-11-03T16:00:49;6.60;;;2.10;;
20375;SDS011;10347;51.828;6.466;2022-11-03T16:03:14;3.80;;;2.10;;
20375;SDS011;10347;51.828;6.466;2022-11-03T16:05:40;3.67;;;2.00;;
20375;SDS011;10347;51.828;6.466;2022-11-03T16:08:05;6.18;;;2.42;;
20375;SDS011;10347;51.828;6.466;2022-11-03T16:10:31;5.35;;;2.40;;
20375;SDS011;10347;51.828;6.466;2022-11-03T16:12:56;4.45;;;2.30;;
20375;SDS011;10347;51.828;6.466;2022-11-03T16:15:22;4.20;;;2.45;;